Aviation Digital Data Service (ADDS)

Output produced by METARs form (1457 UTC 22 April 2019)
found at http://www.aviationweather.gov/metar/data/
 
Forecast for: RJCC (CHITOSE (JASDF/C, JP)
Text: TAF RJCC 221106Z 2212/2318 34006KT 9999 FEW030
Forecast period: 1200 to 1500 UTC 22 April 2019
Forecast type: FROM: standard forecast or significant change
Winds: from the NNW (340 degrees) at 7 MPH (6 knots; 3.1 m/s)
Visibility: 6 or more miles 10+ km)
Ceiling: at least 12,000 feet AGL
Clouds: few clouds at 3000 feet AGL
Weather: no significant weather forecast for this period
Text: BECMG 2215/2217 16011KT
Forecast period: 1500 UTC 22 April 2019 to 1800 UTC 23 April 2019
Forecast type: BECOMING: Conditions expected to become as follows by 1700 UTC 22 April 2019
Winds: from the SSE (160 degrees) at 13 MPH (11 knots; 5.7 m/s)
Visibility: 6 or more miles 10+ km)
Ceiling: at least 12,000 feet AGL
Clouds: few clouds at 3000 feet AGL
Weather: no significant weather forecast for this period
Text: TEMPO 2312/2318 FEW004 BKN008
Forecast period: 1200 to 1800 UTC 23 April 2019
Forecast type: TEMPORARY: The following changes expected for less than half the time period
Visibility: missing
Ceiling: 800 feet AGL
Clouds: few clouds at 400 feet AGL
broken clouds at 800 feet AGL
Weather: no significant weather forecast for this period